Terminal Aerodrome Forecast
Issued by NWS

Home | Current Version | Previous Version | Text Only | Print | Product List | Glossary On
Versions: 1 2 3 4 5 6 7 8 9 10 11 12 13 14 15 16 17 18
000
FTUS46 KMFR 200500
TAFOTH
TAF
KOTH 200521Z 2006/2106 36010KT P6SM SKC
     FM200900 VRB03KT 1/2SM FG OVC002
     FM201400 VRB03KT 4SM BR BKN004
     FM201600 VRB03KT P6SM SCT006
     FM201900 30008KT P6SM SKC
     FM202100 32012KT P6SM SKC
     FM210200 VRB03KT P6SM SKC=

USA.gov is the U.S. government's official web portal to all federal, state and local government web resources and services.